sensor_id;sensor_type;location;lat;lon;timestamp;pressure;altitude;pressure_sealevel;temperature
15544;BMP180;7873;52.230;12.856;2023-08-21T00:00:22;101439.47;;;26.80
15544;BMP180;7873;52.230;12.856;2023-08-21T00:02:48;101433.63;;;26.76
15544;BMP180;7873;52.230;12.856;2023-08-21T00:05:15;101424.00;;;26.74
15544;BMP180;7873;52.230;12.856;2023-08-21T00:07:42;101435.00;;;26.72
15544;BMP180;7873;52.230;12.856;2023-08-21T00:10:09;101440.78;;;26.69
15544;BMP180;7873;52.230;12.856;2023-08-21T00:12:38;101443.28;;;26.71
15544;BMP180;7873;52.230;12.856;2023-08-21T00:15:07;101433.50;;;26.70
15544;BMP180;7873;52.230;12.856;2023-08-21T00:17:35;101440.97;;;26.68
15544;BMP180;7873;52.230;12.856;2023-08-21T00:20:02;101438.44;;;26.66
15544;BMP180;7873;52.230;12.856;2023-08-21T00:22:29;101438.63;;;26.65
15544;BMP180;7873;52.230;12.856;2023-08-21T00:24:55;101437.13;;;26.62
15544;BMP180;7873;52.230;12.856;2023-08-21T00:27:22;101434.63;;;26.61
15544;BMP180;7873;52.230;12.856;2023-08-21T00:29:48;101437.31;;;26.61
15544;BMP180;7873;52.230;12.856;2023-08-21T00:32:16;101436.66;;;26.59
15544;BMP180;7873;52.230;12.856;2023-08-21T00:34:43;101438.34;;;26.60
15544;BMP180;7873;52.230;12.856;2023-08-21T00:37:10;101427.53;;;26.60
15544;BMP180;7873;52.230;12.856;2023-08-21T00:39:36;101433.13;;;26.58
15544;BMP180;7873;52.230;12.856;2023-08-21T00:42:03;101432.09;;;26.59
15544;BMP180;7873;52.230;12.856;2023-08-21T00:44:30;101433.97;;;26.59
15544;BMP180;7873;52.230;12.856;2023-08-21T00:46:57;101431.81;;;26.54
15544;BMP180;7873;52.230;12.856;2023-08-21T00:49:25;101431.81;;;26.54
15544;BMP180;7873;52.230;12.856;2023-08-21T00:51:52;101436.34;;;26.54
15544;BMP180;7873;52.230;12.856;2023-08-21T00:54:19;101437.22;;;26.54
15544;BMP180;7873;52.230;12.856;2023-08-21T00:56:46;101442.78;;;26.53
15544;BMP180;7873;52.230;12.856;2023-08-21T00:59:13;101437.22;;;26.54
15544;BMP180;7873;52.230;12.856;2023-08-21T01:01:40;101435.53;;;26.53
15544;BMP180;7873;52.230;12.856;2023-08-21T01:04:07;101434.03;;;26.51
15544;BMP180;7873;52.230;12.856;2023-08-21T01:06:36;101434.03;;;26.51
15544;BMP180;7873;52.230;12.856;2023-08-21T01:09:08;101437.75;;;26.50
15544;BMP180;7873;52.230;12.856;2023-08-21T01:11:41;101436.56;;;26.52
15544;BMP180;7873;52.230;12.856;2023-08-21T01:14:25;101436.72;;;26.51
15544;BMP180;7873;52.230;12.856;2023-08-21T01:16:56;101433.56;;;26.47
15544;BMP180;7873;52.230;12.856;2023-08-21T01:19:30;101432.03;;;26.45
15544;BMP180;7873;52.230;12.856;2023-08-21T01:21:59;101422.91;;;26.46
15544;BMP180;7873;52.230;12.856;2023-08-21T01:24:27;101429.16;;;26.46
15544;BMP180;7873;52.230;12.856;2023-08-21T01:26:54;101426.63;;;26.45
15544;BMP180;7873;52.230;12.856;2023-08-21T01:29:21;101423.06;;;26.44
15544;BMP180;7873;52.230;12.856;2023-08-21T01:31:52;101426.47;;;26.46
15544;BMP180;7873;52.230;12.856;2023-08-21T01:34:21;101424.56;;;26.47
15544;BMP180;7873;52.230;12.856;2023-08-21T01:36:49;101429.97;;;26.47
15544;BMP180;7873;52.230;12.856;2023-08-21T01:39:16;101424.75;;;26.45
15544;BMP180;7873;52.230;12.856;2023-08-21T01:41:44;101431.19;;;26.44
15544;BMP180;7873;52.230;12.856;2023-08-21T01:44:10;101440.28;;;26.43
15544;BMP180;7873;52.230;12.856;2023-08-21T01:46:37;101435.91;;;26.42
15544;BMP180;7873;52.230;12.856;2023-08-21T01:49:04;101432.41;;;26.42
15544;BMP180;7873;52.230;12.856;2023-08-21T01:51:30;101429.88;;;26.40
15544;BMP180;7873;52.230;12.856;2023-08-21T01:53:57;101429.88;;;26.40
15544;BMP180;7873;52.230;12.856;2023-08-21T01:56:24;101431.75;;;26.40
15544;BMP180;7873;52.230;12.856;2023-08-21T01:58:52;101426.50;;;26.38
15544;BMP180;7873;52.230;12.856;2023-08-21T02:01:18;101426.50;;;26.38
15544;BMP180;7873;52.230;12.856;2023-08-21T02:03:45;101427.53;;;26.37
15544;BMP180;7873;52.230;12.856;2023-08-21T02:06:12;101428.75;;;26.35
15544;BMP180;7873;52.230;12.856;2023-08-21T02:08:39;101431.09;;;26.38
15544;BMP180;7873;52.230;12.856;2023-08-21T02:11:06;101424.19;;;26.35
15544;BMP180;7873;52.230;12.856;2023-08-21T02:13:32;101417.94;;;26.35
15544;BMP180;7873;52.230;12.856;2023-08-21T02:16:00;101419.63;;;26.36
15544;BMP180;7873;52.230;12.856;2023-08-21T02:18:27;101418.78;;;26.35
15544;BMP180;7873;52.230;12.856;2023-08-21T02:20:54;101421.69;;;26.34
15544;BMP180;7873;52.230;12.856;2023-08-21T02:23:21;101417.94;;;26.35
15544;BMP180;7873;52.230;12.856;2023-08-21T02:25:49;101418.28;;;26.32
15544;BMP180;7873;52.230;12.856;2023-08-21T02:28:16;101425.56;;;26.31
15544;BMP180;7873;52.230;12.856;2023-08-21T02:30:43;101415.13;;;26.28
15544;BMP180;7873;52.230;12.856;2023-08-21T02:33:11;101424.06;;;26.29
15544;BMP180;7873;52.230;12.856;2023-08-21T02:35:38;101433.84;;;26.30
15544;BMP180;7873;52.230;12.856;2023-08-21T02:38:05;101437.56;;;26.29
15544;BMP180;7873;52.230;12.856;2023-08-21T02:40:31;101433.38;;;26.26
15544;BMP180;7873;52.230;12.856;2023-08-21T02:42:58;101430.47;;;26.28
15544;BMP180;7873;52.230;12.856;2023-08-21T02:45:25;101429.66;;;26.27
15544;BMP180;7873;52.230;12.856;2023-08-21T02:47:51;101436.09;;;26.26
15544;BMP180;7873;52.230;12.856;2023-08-21T02:50:19;101433.38;;;26.26
15544;BMP180;7873;52.230;12.856;2023-08-21T02:52:46;101431.88;;;26.24
15544;BMP180;7873;52.230;12.856;2023-08-21T02:55:13;101434.56;;;26.24
15544;BMP180;7873;52.230;12.856;2023-08-21T02:57:41;101430.03;;;26.24
15544;BMP180;7873;52.230;12.856;2023-08-21T03:00:08;101437.28;;;26.24
15544;BMP180;7873;52.230;12.856;2023-08-21T03:02:35;101448.28;;;26.22
15544;BMP180;7873;52.230;12.856;2023-08-21T03:05:01;101444.56;;;26.23
15544;BMP180;7873;52.230;12.856;2023-08-21T03:07:29;101446.22;;;26.24
15544;BMP180;7873;52.230;12.856;2023-08-21T03:09:56;101433.06;;;26.21
15544;BMP180;7873;52.230;12.856;2023-08-21T03:12:23;101434.94;;;26.21
15544;BMP180;7873;52.230;12.856;2023-08-21T03:14:50;101443.69;;;26.23
15544;BMP180;7873;52.230;12.856;2023-08-21T03:17:16;101456.00;;;26.25
15544;BMP180;7873;52.230;12.856;2023-08-21T03:19:43;101457.47;;;26.28
15544;BMP180;7873;52.230;12.856;2023-08-21T03:22:10;101459.00;;;26.30
15544;BMP180;7873;52.230;12.856;2023-08-21T03:24:38;101457.31;;;26.29
15544;BMP180;7873;52.230;12.856;2023-08-21T03:27:05;101455.44;;;26.30
15544;BMP180;7873;52.230;12.856;2023-08-21T03:29:31;101455.63;;;26.28
15544;BMP180;7873;52.230;12.856;2023-08-21T03:31:58;101453.09;;;26.27
15544;BMP180;7873;52.230;12.856;2023-08-21T03:34:24;101457.69;;;26.26
15544;BMP180;7873;52.230;12.856;2023-08-21T03:36:51;101461.56;;;26.24
15544;BMP180;7873;52.230;12.856;2023-08-21T03:39:18;101461.09;;;26.20
15544;BMP180;7873;52.230;12.856;2023-08-21T03:41:46;101457.56;;;26.20
15544;BMP180;7873;52.230;12.856;2023-08-21T03:44:13;101464.81;;;26.19
15544;BMP180;7873;52.230;12.856;2023-08-21T03:46:39;101464.28;;;26.24
15544;BMP180;7873;52.230;12.856;2023-08-21T03:49:06;101460.38;;;26.26
15544;BMP180;7873;52.230;12.856;2023-08-21T03:51:33;101460.19;;;26.28
15544;BMP180;7873;52.230;12.856;2023-08-21T03:53:59;101455.06;;;26.33
15544;BMP180;7873;52.230;12.856;2023-08-21T03:56:26;101451.00;;;26.37
15544;BMP180;7873;52.230;12.856;2023-08-21T03:58:54;101454.25;;;26.32
15544;BMP180;7873;52.230;12.856;2023-08-21T04:01:21;101448.56;;;26.27
15544;BMP180;7873;52.230;12.856;2023-08-21T04:03:48;101443.81;;;26.29
15544;BMP180;7873;52.230;12.856;2023-08-21T04:06:14;101445.13;;;26.33
15544;BMP180;7873;52.230;12.856;2023-08-21T04:08:41;101442.25;;;26.35
15544;BMP180;7873;52.230;12.856;2023-08-21T04:11:08;101447.28;;;26.38
15544;BMP180;7873;52.230;12.856;2023-08-21T04:13:34;101444.63;;;26.30
15544;BMP180;7873;52.230;12.856;2023-08-21T04:16:03;101451.06;;;26.29
15544;BMP180;7873;52.230;12.856;2023-08-21T04:18:30;101439.91;;;26.32
15544;BMP180;7873;52.230;12.856;2023-08-21T04:20:56;101447.72;;;26.27
15544;BMP180;7873;52.230;12.856;2023-08-21T04:23:23;101447.06;;;26.25
15544;BMP180;7873;52.230;12.856;2023-08-21T04:25:50;101453.66;;;26.22
15544;BMP180;7873;52.230;12.856;2023-08-21T04:28:16;101441.72;;;26.17
15544;BMP180;7873;52.230;12.856;2023-08-21T04:30:43;101443.56;;;26.16
15544;BMP180;7873;52.230;12.856;2023-08-21T04:33:11;101444.78;;;26.14
15544;BMP180;7873;52.230;12.856;2023-08-21T04:35:38;101442.75;;;26.16
15544;BMP180;7873;52.230;12.856;2023-08-21T04:40:32;101454.00;;;26.19
15544;BMP180;7873;52.230;12.856;2023-08-21T04:42:59;101454.19;;;26.18
15544;BMP180;7873;52.230;12.856;2023-08-21T04:45:25;101461.94;;;26.21
15544;BMP180;7873;52.230;12.856;2023-08-21T04:47:52;101454.84;;;26.20
15544;BMP180;7873;52.230;12.856;2023-08-21T04:50:20;101464.63;;;26.21
15544;BMP180;7873;52.230;12.856;2023-08-21T04:52:47;101461.28;;;26.19
15544;BMP180;7873;52.230;12.856;2023-08-21T04:55:15;101459.59;;;26.18
15544;BMP180;7873;52.230;12.856;2023-08-21T04:57:42;101457.94;;;26.17
15544;BMP180;7873;52.230;12.856;2023-08-21T05:00:09;101464.34;;;26.16
15544;BMP180;7873;52.230;12.856;2023-08-21T05:02:36;101465.53;;;26.13
15544;BMP180;7873;52.230;12.856;2023-08-21T05:05:03;101467.56;;;26.11
15544;BMP180;7873;52.230;12.856;2023-08-21T05:07:32;101471.13;;;26.12
15544;BMP180;7873;52.230;12.856;2023-08-21T05:09:59;101471.28;;;26.10
15544;BMP180;7873;52.230;12.856;2023-08-21T05:12:26;101469.63;;;26.09
15544;BMP180;7873;52.230;12.856;2023-08-21T05:14:53;101469.44;;;26.11
15544;BMP180;7873;52.230;12.856;2023-08-21T05:17:20;101464.50;;;26.14
15544;BMP180;7873;52.230;12.856;2023-08-21T05:19:46;101467.41;;;26.13
15544;BMP180;7873;52.230;12.856;2023-08-21T05:22:13;101478.50;;;26.18
15544;BMP180;7873;52.230;12.856;2023-08-21T05:24:41;101477.00;;;26.15
15544;BMP180;7873;52.230;12.856;2023-08-21T05:27:07;101470.28;;;26.11
15544;BMP180;7873;52.230;12.856;2023-08-21T05:29:34;101479.22;;;26.12
15544;BMP180;7873;52.230;12.856;2023-08-21T05:32:01;101473.47;;;26.15
15544;BMP180;7873;52.230;12.856;2023-08-21T05:34:27;101479.88;;;26.14
15544;BMP180;7873;52.230;12.856;2023-08-21T05:36:54;101471.59;;;26.15
15544;BMP180;7873;52.230;12.856;2023-08-21T05:39:21;101477.28;;;26.20
15544;BMP180;7873;52.230;12.856;2023-08-21T05:41:49;101474.78;;;26.19
15544;BMP180;7873;52.230;12.856;2023-08-21T05:44:15;101468.06;;;26.15
15544;BMP180;7873;52.230;12.856;2023-08-21T05:46:42;101475.84;;;26.10
15544;BMP180;7873;52.230;12.856;2023-08-21T05:49:09;101489.53;;;26.08
15544;BMP180;7873;52.230;12.856;2023-08-21T05:51:35;101490.25;;;26.02
15544;BMP180;7873;52.230;12.856;2023-08-21T05:54:02;101486.19;;;25.98
15544;BMP180;7873;52.230;12.856;2023-08-21T05:56:29;101495.31;;;25.97
15544;BMP180;7873;52.230;12.856;2023-08-21T05:58:57;101495.53;;;25.96
15544;BMP180;7873;52.230;12.856;2023-08-21T06:01:23;101499.91;;;25.97
15544;BMP180;7873;52.230;12.856;2023-08-21T06:03:50;101500.25;;;25.94
15544;BMP180;7873;52.230;12.856;2023-08-21T06:06:17;101502.59;;;25.97
15544;BMP180;7873;52.230;12.856;2023-08-21T06:08:43;101512.38;;;25.98
15544;BMP180;7873;52.230;12.856;2023-08-21T06:11:10;101511.88;;;25.94
15544;BMP180;7873;52.230;12.856;2023-08-21T06:13:37;101518.13;;;25.95
15544;BMP180;7873;52.230;12.856;2023-08-21T06:16:05;101517.28;;;25.94
15544;BMP180;7873;52.230;12.856;2023-08-21T06:18:31;101519.81;;;25.96
15544;BMP180;7873;52.230;12.856;2023-08-21T06:20:58;101518.59;;;25.98
15544;BMP180;7873;52.230;12.856;2023-08-21T06:23:25;101519.63;;;25.97
15544;BMP180;7873;52.230;12.856;2023-08-21T06:25:51;101520.31;;;25.99
15544;BMP180;7873;52.230;12.856;2023-08-21T06:28:18;101525.34;;;26.02
15544;BMP180;7873;52.230;12.856;2023-08-21T06:30:45;101520.97;;;26.01
15544;BMP180;7873;52.230;12.856;2023-08-21T06:33:13;101526.69;;;25.98
15544;BMP180;7873;52.230;12.856;2023-08-21T06:35:40;101523.53;;;25.95
15544;BMP180;7873;52.230;12.856;2023-08-21T06:38:06;101523.00;;;25.99
15544;BMP180;7873;52.230;12.856;2023-08-21T06:40:33;101521.50;;;25.97
15544;BMP180;7873;52.230;12.856;2023-08-21T06:42:59;101513.75;;;25.94
15544;BMP180;7873;52.230;12.856;2023-08-21T06:45:26;101503.41;;;25.97
15544;BMP180;7873;52.230;12.856;2023-08-21T06:47:55;101508.00;;;25.97
15544;BMP180;7873;52.230;12.856;2023-08-21T06:50:23;101522.50;;;25.96
15544;BMP180;7873;52.230;12.856;2023-08-21T06:52:50;101521.66;;;25.95
15544;BMP180;7873;52.230;12.856;2023-08-21T06:55:17;101538.03;;;25.94
15544;BMP180;7873;52.230;12.856;2023-08-21T06:57:43;101537.38;;;25.92
15544;BMP180;7873;52.230;12.856;2023-08-21T07:00:11;101536.16;;;25.94
15544;BMP180;7873;52.230;12.856;2023-08-21T07:02:38;101537.69;;;25.97
15544;BMP180;7873;52.230;12.856;2023-08-21T07:05:05;101535.16;;;25.95
15544;BMP180;7873;52.230;12.856;2023-08-21T07:07:33;101537.03;;;25.95
15544;BMP180;7873;52.230;12.856;2023-08-21T07:09:59;101535.00;;;25.97
15544;BMP180;7873;52.230;12.856;2023-08-21T07:12:26;101533.97;;;25.98
15544;BMP180;7873;52.230;12.856;2023-08-21T07:14:53;101533.81;;;25.99
15544;BMP180;7873;52.230;12.856;2023-08-21T07:17:19;101536.66;;;25.98
15544;BMP180;7873;52.230;12.856;2023-08-21T07:19:46;101533.97;;;25.98
15544;BMP180;7873;52.230;12.856;2023-08-21T07:22:14;101537.84;;;25.95
15544;BMP180;7873;52.230;12.856;2023-08-21T07:24:42;101542.22;;;25.96
15544;BMP180;7873;52.230;12.856;2023-08-21T07:27:09;101536.66;;;25.98
15544;BMP180;7873;52.230;12.856;2023-08-21T07:29:35;101537.50;;;25.98
15544;BMP180;7873;52.230;12.856;2023-08-21T07:32:02;101541.41;;;25.96
15544;BMP180;7873;52.230;12.856;2023-08-21T07:34:29;101540.53;;;25.95
15544;BMP180;7873;52.230;12.856;2023-08-21T07:36:55;101543.09;;;25.97
15544;BMP180;7873;52.230;12.856;2023-08-21T07:39:22;101537.03;;;25.95
15544;BMP180;7873;52.230;12.856;2023-08-21T07:41:50;101546.28;;;26.00
15544;BMP180;7873;52.230;12.856;2023-08-21T07:44:18;101544.72;;;26.06
15544;BMP180;7873;52.230;12.856;2023-08-21T07:46:45;101540.53;;;26.03
15544;BMP180;7873;52.230;12.856;2023-08-21T07:49:12;101544.53;;;26.07
15544;BMP180;7873;52.230;12.856;2023-08-21T07:51:38;101543.34;;;26.10
15544;BMP180;7873;52.230;12.856;2023-08-21T07:54:05;101535.22;;;26.10
15544;BMP180;7873;52.230;12.856;2023-08-21T07:56:32;101544.03;;;26.12
15544;BMP180;7873;52.230;12.856;2023-08-21T07:59:02;101539.09;;;26.15
15544;BMP180;7873;52.230;12.856;2023-08-21T08:01:29;101540.41;;;26.19
15544;BMP180;7873;52.230;12.856;2023-08-21T08:03:56;101545.47;;;26.22
15544;BMP180;7873;52.230;12.856;2023-08-21T08:06:22;101542.94;;;26.21
15544;BMP180;7873;52.230;12.856;2023-08-21T08:08:49;101542.59;;;26.24
15544;BMP180;7873;52.230;12.856;2023-08-21T08:11:16;101544.47;;;26.23
15544;BMP180;7873;52.230;12.856;2023-08-21T08:13:43;101529.59;;;26.19
15544;BMP180;7873;52.230;12.856;2023-08-21T08:16:11;101543.75;;;26.21
15544;BMP180;7873;52.230;12.856;2023-08-21T08:18:37;101529.59;;;26.19
15544;BMP180;7873;52.230;12.856;2023-08-21T08:21:04;101536.53;;;26.22
15544;BMP180;7873;52.230;12.856;2023-08-21T08:23:31;101532.78;;;26.23
15544;BMP180;7873;52.230;12.856;2023-08-21T08:25:58;101538.19;;;26.23
15544;BMP180;7873;52.230;12.856;2023-08-21T08:28:25;101539.22;;;26.22
15544;BMP180;7873;52.230;12.856;2023-08-21T08:30:51;101535.13;;;26.26
15544;BMP180;7873;52.230;12.856;2023-08-21T08:33:20;101534.78;;;26.29
15544;BMP180;7873;52.230;12.856;2023-08-21T08:35:46;101533.75;;;26.30
15544;BMP180;7873;52.230;12.856;2023-08-21T08:38:14;101543.22;;;26.34
15544;BMP180;7873;52.230;12.856;2023-08-21T08:40:43;101534.09;;;26.35
15544;BMP180;7873;52.230;12.856;2023-08-21T08:43:10;101529.88;;;26.32
15544;BMP180;7873;52.230;12.856;2023-08-21T08:45:38;101539.66;;;26.33
15544;BMP180;7873;52.230;12.856;2023-08-21T08:48:06;101535.19;;;26.40
15544;BMP180;7873;52.230;12.856;2023-08-21T08:50:37;101532.50;;;26.40
15544;BMP180;7873;52.230;12.856;2023-08-21T08:53:06;101531.47;;;26.41
15544;BMP180;7873;52.230;12.856;2023-08-21T08:55:33;101535.03;;;26.42
15544;BMP180;7873;52.230;12.856;2023-08-21T08:58:00;101535.84;;;26.42
15544;BMP180;7873;52.230;12.856;2023-08-21T09:00:26;101530.28;;;26.44
15544;BMP180;7873;52.230;12.856;2023-08-21T09:02:54;101535.03;;;26.42
15544;BMP180;7873;52.230;12.856;2023-08-21T09:05:21;101541.25;;;26.42
15544;BMP180;7873;52.230;12.856;2023-08-21T09:08:01;101550.22;;;26.43
15544;BMP180;7873;52.230;12.856;2023-08-21T09:10:28;101541.91;;;26.44
15544;BMP180;7873;52.230;12.856;2023-08-21T09:12:55;101541.75;;;26.46
15544;BMP180;7873;52.230;12.856;2023-08-21T09:15:27;101541.75;;;26.46
15544;BMP180;7873;52.230;12.856;2023-08-21T09:17:55;101549.19;;;26.44
15544;BMP180;7873;52.230;12.856;2023-08-21T09:20:22;101546.66;;;26.42
15544;BMP180;7873;52.230;12.856;2023-08-21T09:22:53;101539.22;;;26.44
15544;BMP180;7873;52.230;12.856;2023-08-21T09:25:21;101545.31;;;26.46
15544;BMP180;7873;52.230;12.856;2023-08-21T09:27:51;101538.19;;;26.45
15544;BMP180;7873;52.230;12.856;2023-08-21T09:30:19;101535.69;;;26.44
15544;BMP180;7873;52.230;12.856;2023-08-21T09:32:52;101532.78;;;26.45
15544;BMP180;7873;52.230;12.856;2023-08-21T09:35:20;101539.06;;;26.46
15544;BMP180;7873;52.230;12.856;2023-08-21T09:37:47;101538.03;;;26.47
15544;BMP180;7873;52.230;12.856;2023-08-21T09:40:15;101537.03;;;26.48
15544;BMP180;7873;52.230;12.856;2023-08-21T09:42:43;101533.50;;;26.47
15544;BMP180;7873;52.230;12.856;2023-08-21T09:45:10;101538.91;;;26.47
15544;BMP180;7873;52.230;12.856;2023-08-21T09:47:37;101541.06;;;26.52
15544;BMP180;7873;52.230;12.856;2023-08-21T09:50:05;101536.97;;;26.56
15544;BMP180;7873;52.230;12.856;2023-08-21T09:52:32;101538.34;;;26.52
15544;BMP180;7873;52.230;12.856;2023-08-21T09:55:00;101537.81;;;26.56
15544;BMP180;7873;52.230;12.856;2023-08-21T09:57:29;101532.88;;;26.37
15544;BMP180;7873;52.230;12.856;2023-08-21T09:59:58;101538.13;;;26.31
15544;BMP180;7873;52.230;12.856;2023-08-21T10:02:26;101531.31;;;26.43
15544;BMP180;7873;52.230;12.856;2023-08-21T10:04:52;101526.22;;;26.48
15544;BMP180;7873;52.230;12.856;2023-08-21T10:07:21;101530.25;;;26.52
15544;BMP180;7873;52.230;12.856;2023-08-21T10:09:49;101536.44;;;26.60
15544;BMP180;7873;52.230;12.856;2023-08-21T10:12:16;101527.13;;;26.63
15544;BMP180;7873;52.230;12.856;2023-08-21T10:14:43;101533.56;;;26.62
15544;BMP180;7873;52.230;12.856;2023-08-21T10:17:12;101529.19;;;26.61
15544;BMP180;7873;52.230;12.856;2023-08-21T10:19:38;101535.63;;;26.60
15544;BMP180;7873;52.230;12.856;2023-08-21T10:22:05;101526.28;;;26.62
15544;BMP180;7873;52.230;12.856;2023-08-21T10:24:34;101525.75;;;26.67
15544;BMP180;7873;52.230;12.856;2023-08-21T10:27:02;101521.00;;;26.69
15544;BMP180;7873;52.230;12.856;2023-08-21T10:29:28;101524.72;;;26.68
15544;BMP180;7873;52.230;12.856;2023-08-21T10:32:00;101522.84;;;26.68
15544;BMP180;7873;52.230;12.856;2023-08-21T10:34:33;101520.16;;;26.68
15544;BMP180;7873;52.230;12.856;2023-08-21T10:37:08;101528.16;;;26.62
15544;BMP180;7873;52.230;12.856;2023-08-21T10:39:39;101522.38;;;26.65
15544;BMP180;7873;52.230;12.856;2023-08-21T10:42:08;101521.66;;;26.71
15544;BMP180;7873;52.230;12.856;2023-08-21T10:44:52;101527.72;;;26.73
15544;BMP180;7873;52.230;12.856;2023-08-21T10:47:22;101526.69;;;26.74
15544;BMP180;7873;52.230;12.856;2023-08-21T10:49:52;101531.06;;;26.75
15544;BMP180;7873;52.230;12.856;2023-08-21T10:52:23;101526.69;;;26.74
15544;BMP180;7873;52.230;12.856;2023-08-21T10:54:52;101527.53;;;26.74
15544;BMP180;7873;52.230;12.856;2023-08-21T10:57:19;101530.06;;;26.76
15544;BMP180;7873;52.230;12.856;2023-08-21T10:59:51;101525.38;;;26.70
15544;BMP180;7873;52.230;12.856;2023-08-21T11:02:18;101532.06;;;26.59
15544;BMP180;7873;52.230;12.856;2023-08-21T11:04:44;101516.88;;;26.58
15544;BMP180;7873;52.230;12.856;2023-08-21T11:07:12;101520.34;;;26.67
15544;BMP180;7873;52.230;12.856;2023-08-21T11:09:39;101521.00;;;26.69
15544;BMP180;7873;52.230;12.856;2023-08-21T11:12:08;101520.47;;;26.73
15544;BMP180;7873;52.230;12.856;2023-08-21T11:14:34;101518.59;;;26.74
15544;BMP180;7873;52.230;12.856;2023-08-21T11:17:01;101522.97;;;26.75
15544;BMP180;7873;52.230;12.856;2023-08-21T11:19:30;101521.66;;;26.71
15544;BMP180;7873;52.230;12.856;2023-08-21T11:21:57;101521.75;;;26.63
15544;BMP180;7873;52.230;12.856;2023-08-21T11:24:31;101517.00;;;26.65
15544;BMP180;7873;52.230;12.856;2023-08-21T11:26:58;101521.38;;;26.66
15544;BMP180;7873;52.230;12.856;2023-08-21T11:29:25;101518.75;;;26.58
15544;BMP180;7873;52.230;12.856;2023-08-21T11:31:52;101513.34;;;26.58
15544;BMP180;7873;52.230;12.856;2023-08-21T11:34:19;101516.75;;;26.52
15544;BMP180;7873;52.230;12.856;2023-08-21T11:36:46;101517.97;;;26.49
15544;BMP180;7873;52.230;12.856;2023-08-21T11:39:13;101523.81;;;26.53
15544;BMP180;7873;52.230;12.856;2023-08-21T11:41:54;101521.50;;;26.50
15544;BMP180;7873;52.230;12.856;2023-08-21T11:44:21;101516.41;;;26.47
15544;BMP180;7873;52.230;12.856;2023-08-21T11:46:50;101516.28;;;26.48
15544;BMP180;7873;52.230;12.856;2023-08-21T11:49:17;101514.03;;;26.52
15544;BMP180;7873;52.230;12.856;2023-08-21T11:51:45;101522.16;;;26.52
15544;BMP180;7873;52.230;12.856;2023-08-21T11:54:12;101519.28;;;26.53
15544;BMP180;7873;52.230;12.856;2023-08-21T11:56:39;101515.66;;;26.61
15544;BMP180;7873;52.230;12.856;2023-08-21T11:59:09;101522.28;;;26.58
15544;BMP180;7873;52.230;12.856;2023-08-21T12:01:37;101523.94;;;26.59
15544;BMP180;7873;52.230;12.856;2023-08-21T12:04:14;101523.94;;;26.59
15544;BMP180;7873;52.230;12.856;2023-08-21T12:06:43;101524.59;;;26.61
15544;BMP180;7873;52.230;12.856;2023-08-21T12:09:10;101527.50;;;26.60
15544;BMP180;7873;52.230;12.856;2023-08-21T12:11:37;101523.78;;;26.61
15544;BMP180;7873;52.230;12.856;2023-08-21T12:14:04;101527.34;;;26.76
15544;BMP180;7873;52.230;12.856;2023-08-21T12:16:33;101526.97;;;26.79
15544;BMP180;7873;52.230;12.856;2023-08-21T12:18:59;101526.44;;;26.83
15544;BMP180;7873;52.230;12.856;2023-08-21T12:21:27;101529.63;;;26.87
15544;BMP180;7873;52.230;12.856;2023-08-21T12:23:53;101529.44;;;26.88
15544;BMP180;7873;52.230;12.856;2023-08-21T12:26:20;101526.66;;;26.96
15544;BMP180;7873;52.230;12.856;2023-08-21T12:28:47;101509.41;;;26.97
15544;BMP180;7873;52.230;12.856;2023-08-21T12:31:13;101515.84;;;26.96
15544;BMP180;7873;52.230;12.856;2023-08-21T12:33:41;101513.97;;;26.97
15544;BMP180;7873;52.230;12.856;2023-08-21T12:36:08;101525.34;;;26.92
15544;BMP180;7873;52.230;12.856;2023-08-21T12:38:35;101521.25;;;26.96
15544;BMP180;7873;52.230;12.856;2023-08-21T12:41:01;101514.53;;;26.92
15544;BMP180;7873;52.230;12.856;2023-08-21T12:43:28;101518.94;;;26.93
15544;BMP180;7873;52.230;12.856;2023-08-21T12:45:55;101517.31;;;26.99
15544;BMP180;7873;52.230;12.856;2023-08-21T12:48:22;101508.28;;;26.92
15544;BMP180;7873;52.230;12.856;2023-08-21T12:50:50;101515.38;;;26.93
15544;BMP180;7873;52.230;12.856;2023-08-21T12:53:16;101508.28;;;26.92
15544;BMP180;7873;52.230;12.856;2023-08-21T12:55:43;101515.53;;;26.91
15544;BMP180;7873;52.230;12.856;2023-08-21T12:58:10;101520.41;;;26.96
15544;BMP180;7873;52.230;12.856;2023-08-21T13:00:38;101519.22;;;26.98
15544;BMP180;7873;52.230;12.856;2023-08-21T13:03:05;101512.50;;;26.94
15544;BMP180;7873;52.230;12.856;2023-08-21T13:05:33;101514.53;;;26.92
15544;BMP180;7873;52.230;12.856;2023-08-21T13:08:02;101521.16;;;26.90
15544;BMP180;7873;52.230;12.856;2023-08-21T13:10:28;101513.97;;;26.97
15544;BMP180;7873;52.230;12.856;2023-08-21T13:12:55;101524.78;;;26.97
15544;BMP180;7873;52.230;12.856;2023-08-21T13:15:22;101526.19;;;26.93
15544;BMP180;7873;52.230;12.856;2023-08-21T13:17:48;101530.94;;;26.91
15544;BMP180;7873;52.230;12.856;2023-08-21T13:20:15;101528.59;;;26.88
15544;BMP180;7873;52.230;12.856;2023-08-21T13:22:46;101527.03;;;26.93
15544;BMP180;7873;52.230;12.856;2023-08-21T13:25:15;101526.19;;;26.93
15544;BMP180;7873;52.230;12.856;2023-08-21T13:27:43;101515.28;;;27.01
15544;BMP180;7873;52.230;12.856;2023-08-21T13:30:11;101508.19;;;27.00
15544;BMP180;7873;52.230;12.856;2023-08-21T13:32:38;101507.91;;;26.95
15544;BMP180;7873;52.230;12.856;2023-08-21T13:35:05;101517.03;;;26.94
15544;BMP180;7873;52.230;12.856;2023-08-21T13:37:33;101510.06;;;26.99
15544;BMP180;7873;52.230;12.856;2023-08-21T13:40:00;101506.81;;;27.04
15544;BMP180;7873;52.230;12.856;2023-08-21T13:42:37;101494.97;;;27.05
15544;BMP180;7873;52.230;12.856;2023-08-21T13:45:07;101491.59;;;27.03
15544;BMP180;7873;52.230;12.856;2023-08-21T13:47:35;101484.88;;;26.99
15544;BMP180;7873;52.230;12.856;2023-08-21T13:50:02;101480.06;;;26.94
15544;BMP180;7873;52.230;12.856;2023-08-21T13:52:30;101481.25;;;26.92
15544;BMP180;7873;52.230;12.856;2023-08-21T13:54:58;101479.09;;;26.87
15544;BMP180;7873;52.230;12.856;2023-08-21T13:57:24;101475.09;;;26.83
15544;BMP180;7873;52.230;12.856;2023-08-21T13:59:53;101473.25;;;26.84